QTR12MG OTHH-LEBL
Flight info
| Callsign | QTR12MG |
|---|---|
| Flight time | N/A |
| Altitude | 38000 |
| Route | DATRI L564 MIGMA M550 MEVDO Y511 PMA Z712 WEJ L677 CVO L617 NABSI M872 METRU DCT ARLOS DCT OLLEK DCT ADEXI DCT ADAMI DCT ALG DCT GINOX DCT KIFMI DCT ELVOP DCT MUREN DCT CHELY DCT VERSO |
| Aircraft | A359/H-SDE2E3GHIJ3J4J5LM1ORWXY/LB1D1 |
Departure
| Time | 2026-05-06 08:42 |
|---|---|
| Airport | Hamad International Airport (OTHH) |
Arrival
| Time | N/A |
|---|---|
| Airport | Josep Tarradellas Barcelona-El Prat Airport (LEBL) |
| Time | Latitude | Longitude | Altitude | Speed | Heading |
|---|---|---|---|---|---|
| 2026-05-06 08:17 | 25.26525 | 51.61065 | 36 ft | 0 kts | 68° |
| 2026-05-06 08:31 | 25.26523 | 51.61061 | 36 ft | 3 kts | 68° |
| 2026-05-06 08:32 | 25.26516 | 51.61042 | 35 ft | 3 kts | 68° |
| 2026-05-06 08:32 | 25.26509 | 51.61022 | 34 ft | 3 kts | 68° |
| 2026-05-06 08:32 | 25.26502 | 51.61002 | 34 ft | 3 kts | 91° |
| 2026-05-06 08:32 | 25.26505 | 51.60981 | 32 ft | 3 kts | 122° |
| 2026-05-06 08:33 | 25.26517 | 51.60966 | 34 ft | 2 kts | 159° |
| 2026-05-06 08:33 | 25.26518 | 51.60966 | 34 ft | 0 kts | 159° |
| 2026-05-06 08:35 | 25.26471 | 51.60978 | 35 ft | 8 kts | 178° |
| 2026-05-06 08:35 | 25.26430 | 51.60945 | 36 ft | 8 kts | 241° |
| 2026-05-06 08:35 | 25.26388 | 51.60917 | 36 ft | 7 kts | 178° |
| 2026-05-06 08:35 | 25.26334 | 51.60936 | 36 ft | 10 kts | 165° |
| 2026-05-06 08:36 | 25.26275 | 51.60915 | 36 ft | 9 kts | 235° |
| 2026-05-06 08:36 | 25.26249 | 51.60845 | 36 ft | 11 kts | 248° |
| 2026-05-06 08:36 | 25.26220 | 51.60764 | 36 ft | 12 kts | 248° |
| 2026-05-06 08:36 | 25.26186 | 51.60697 | 36 ft | 9 kts | 217° |
| 2026-05-06 08:37 | 25.26125 | 51.60701 | 36 ft | 10 kts | 160° |
| 2026-05-06 08:37 | 25.26045 | 51.60736 | 36 ft | 13 kts | 159° |
| 2026-05-06 08:37 | 25.25956 | 51.60775 | 36 ft | 14 kts | 158° |
| 2026-05-06 08:37 | 25.25862 | 51.60816 | 36 ft | 15 kts | 157° |
| 2026-05-06 08:38 | 25.25775 | 51.60855 | 36 ft | 13 kts | 158° |
| 2026-05-06 08:38 | 25.25700 | 51.60881 | 36 ft | 10 kts | 182° |
| 2026-05-06 08:38 | 25.25655 | 51.60828 | 36 ft | 8 kts | 246° |
| 2026-05-06 08:38 | 25.25633 | 51.60768 | 36 ft | 9 kts | 248° |
| 2026-05-06 08:39 | 25.25608 | 51.60701 | 35 ft | 8 kts | 247° |
| 2026-05-06 08:39 | 25.25600 | 51.60678 | 35 ft | 0 kts | 248° |
| 2026-05-06 08:40 | 25.25595 | 51.60667 | 34 ft | 4 kts | 248° |
| 2026-05-06 08:40 | 25.25582 | 51.60616 | 33 ft | 10 kts | 258° |
| 2026-05-06 08:40 | 25.25590 | 51.60534 | 31 ft | 11 kts | 300° |
| 2026-05-06 08:40 | 25.25644 | 51.60497 | 31 ft | 0 kts | 337° |
| 2026-05-06 08:41 | 25.25749 | 51.60450 | 33 ft | 46 kts | 338° |
| 2026-05-06 08:41 | 25.26237 | 51.60235 | 34 ft | 104 kts | 338° |
| 2026-05-06 08:41 | 25.27073 | 51.59867 | 32 ft | 153 kts | 338° |
| 2026-05-06 08:42 | 25.28170 | 51.59372 | 266 ft | 177 kts | 340° |
| 2026-05-06 08:42 | 25.29316 | 51.58844 | 860 ft | 181 kts | 341° |
| 2026-05-06 08:42 | 25.30490 | 51.58280 | 1381 ft | 185 kts | 339° |
| 2026-05-06 08:42 | 25.31732 | 51.57742 | 1594 ft | 199 kts | 341° |
| 2026-05-06 08:43 | 25.33082 | 51.57175 | 1744 ft | 217 kts | 340° |
| 2026-05-06 08:43 | 25.34541 | 51.56548 | 1967 ft | 234 kts | 340° |
| 2026-05-06 08:43 | 25.36117 | 51.55862 | 2182 ft | 252 kts | 340° |
| 2026-05-06 08:43 | 25.37771 | 51.55136 | 2589 ft | 259 kts | 340° |
| 2026-05-06 08:44 | 25.39436 | 51.54400 | 3128 ft | 262 kts | 340° |
| 2026-05-06 08:44 | 25.41150 | 51.53644 | 3642 ft | 269 kts | 339° |
| 2026-05-06 08:44 | 25.42918 | 51.52867 | 3921 ft | 270 kts | 340° |
| 2026-05-06 08:44 | 25.44666 | 51.52092 | 3998 ft | 271 kts | 339° |
| 2026-05-06 08:45 | 25.46387 | 51.51257 | 4071 ft | 271 kts | 332° |
| 2026-05-06 08:45 | 25.47777 | 51.49878 | 4403 ft | 278 kts | 304° |
| 2026-05-06 08:45 | 25.48398 | 51.47853 | 4981 ft | 283 kts | 275° |
| 2026-05-06 08:45 | 25.48390 | 51.45674 | 5573 ft | 285 kts | 268° |
| 2026-05-06 08:46 | 25.48137 | 51.43493 | 6134 ft | 288 kts | 257° |
| 2026-05-06 08:46 | 25.47329 | 51.41452 | 6621 ft | 293 kts | 234° |
| 2026-05-06 08:46 | 25.45827 | 51.39947 | 7139 ft | 296 kts | 207° |
| 2026-05-06 08:46 | 25.43844 | 51.39394 | 7622 ft | 297 kts | 177° |
| 2026-05-06 08:47 | 25.41808 | 51.39737 | 8237 ft | 297 kts | 166° |
| 2026-05-06 08:47 | 25.40448 | 51.40084 | 8643 ft | 298 kts | 166° |
| 2026-05-06 08:47 | 25.38420 | 51.40609 | 9253 ft | 300 kts | 167° |
| 2026-05-06 08:47 | 25.36380 | 51.41125 | 9867 ft | 302 kts | 167° |
| 2026-05-06 08:48 | 25.34308 | 51.41639 | 10308 ft | 310 kts | 168° |
| 2026-05-06 08:48 | 25.32153 | 51.42167 | 10580 ft | 325 kts | 168° |
| 2026-05-06 08:48 | 25.29893 | 51.42717 | 10846 ft | 339 kts | 168° |
| 2026-05-06 08:48 | 25.27543 | 51.43287 | 11102 ft | 353 kts | 168° |
| 2026-05-06 08:49 | 25.25097 | 51.43878 | 11352 ft | 365 kts | 168° |
| 2026-05-06 08:49 | 25.22590 | 51.44484 | 11733 ft | 372 kts | 168° |
| 2026-05-06 08:49 | 25.20038 | 51.45101 | 11946 ft | 377 kts | 168° |
| 2026-05-06 08:49 | 25.17474 | 51.45720 | 11990 ft | 378 kts | 168° |
| 2026-05-06 08:50 | 25.14902 | 51.46340 | 11991 ft | 378 kts | 168° |
| 2026-05-06 08:50 | 25.12331 | 51.46960 | 11988 ft | 378 kts | 168° |
| 2026-05-06 08:50 | 25.09760 | 51.47580 | 11987 ft | 378 kts | 168° |
| 2026-05-06 08:50 | 25.07186 | 51.48200 | 11986 ft | 379 kts | 168° |
| 2026-05-06 08:51 | 25.04610 | 51.48820 | 11984 ft | 379 kts | 168° |
| 2026-05-06 08:51 | 25.02030 | 51.49442 | 11981 ft | 379 kts | 168° |
| 2026-05-06 08:51 | 24.99450 | 51.50062 | 11981 ft | 380 kts | 168° |
| 2026-05-06 08:51 | 24.96870 | 51.50682 | 11982 ft | 379 kts | 168° |
| 2026-05-06 08:52 | 24.94288 | 51.51303 | 11981 ft | 380 kts | 168° |
| 2026-05-06 08:52 | 24.91707 | 51.51923 | 11981 ft | 380 kts | 168° |
| 2026-05-06 08:52 | 24.89128 | 51.52542 | 11981 ft | 380 kts | 168° |
| 2026-05-06 08:52 | 24.86547 | 51.53162 | 11982 ft | 380 kts | 167° |
| 2026-05-06 08:53 | 24.83962 | 51.53783 | 11977 ft | 380 kts | 167° |
| 2026-05-06 08:53 | 24.81378 | 51.54402 | 11979 ft | 380 kts | 167° |
| 2026-05-06 08:53 | 24.78797 | 51.55021 | 11980 ft | 380 kts | 167° |
| 2026-05-06 08:53 | 24.76235 | 51.55635 | 11980 ft | 382 kts | 167° |
| 2026-05-06 08:54 | 24.73639 | 51.56257 | 11979 ft | 382 kts | 168° |
| 2026-05-06 08:54 | 24.70973 | 51.56642 | 11975 ft | 382 kts | 181° |
| 2026-05-06 08:54 | 24.68366 | 51.56394 | 12121 ft | 382 kts | 189° |
| 2026-05-06 08:54 | 24.65734 | 51.55860 | 12520 ft | 387 kts | 192° |
| 2026-05-06 08:55 | 24.63067 | 51.55190 | 13072 ft | 389 kts | 194° |
| 2026-05-06 08:55 | 24.60432 | 51.54491 | 13619 ft | 391 kts | 194° |
| 2026-05-06 08:55 | 24.57784 | 51.53797 | 14167 ft | 391 kts | 194° |
| 2026-05-06 08:55 | 24.55134 | 51.53124 | 14683 ft | 392 kts | 193° |
| 2026-05-06 08:56 | 24.52503 | 51.52477 | 15182 ft | 393 kts | 193° |
| 2026-05-06 08:56 | 24.49825 | 51.51835 | 15661 ft | 395 kts | 193° |
| 2026-05-06 08:56 | 24.47123 | 51.51196 | 16100 ft | 398 kts | 193° |
| 2026-05-06 08:56 | 24.44409 | 51.50559 | 16582 ft | 400 kts | 193° |
| 2026-05-06 08:57 | 24.41673 | 51.49917 | 17054 ft | 402 kts | 193° |
| 2026-05-06 08:57 | 24.38930 | 51.49274 | 17525 ft | 404 kts | 193° |
| 2026-05-06 08:57 | 24.36173 | 51.48626 | 17998 ft | 406 kts | 193° |
| 2026-05-06 08:57 | 24.33401 | 51.47975 | 18418 ft | 408 kts | 193° |
| 2026-05-06 08:58 | 24.30620 | 51.47322 | 18815 ft | 410 kts | 194° |
| 2026-05-06 08:58 | 24.27821 | 51.46663 | 19215 ft | 412 kts | 193° |
| 2026-05-06 08:58 | 24.25009 | 51.46003 | 19634 ft | 414 kts | 194° |
| 2026-05-06 08:58 | 24.22156 | 51.45451 | 20009 ft | 418 kts | 188° |
| 2026-05-06 08:59 | 24.19248 | 51.45227 | 20382 ft | 422 kts | 186° |
| 2026-05-06 08:59 | 24.16352 | 51.44688 | 20745 ft | 422 kts | 197° |
| 2026-05-06 08:59 | 24.13656 | 51.43455 | 21127 ft | 421 kts | 212° |
| 2026-05-06 08:59 | 24.11376 | 51.41480 | 21489 ft | 420 kts | 229° |
| 2026-05-06 09:00 | 24.09725 | 51.38860 | 21877 ft | 419 kts | 245° |
| 2026-05-06 09:00 | 24.08766 | 51.35852 | 22248 ft | 420 kts | 256° |
| 2026-05-06 09:00 | 24.08149 | 51.32721 | 22620 ft | 422 kts | 260° |
| 2026-05-06 09:00 | 24.07691 | 51.29538 | 22981 ft | 425 kts | 262° |
| 2026-05-06 09:01 | 24.07291 | 51.26349 | 23346 ft | 427 kts | 262° |
| 2026-05-06 09:01 | 24.06888 | 51.23120 | 23670 ft | 428 kts | 262° |
| 2026-05-06 09:01 | 24.06463 | 51.19889 | 23985 ft | 430 kts | 262° |
| 2026-05-06 09:01 | 24.06012 | 51.16651 | 24315 ft | 431 kts | 261° |
| 2026-05-06 09:02 | 24.05540 | 51.13402 | 24669 ft | 433 kts | 261° |
| 2026-05-06 09:02 | 24.05055 | 51.10153 | 25074 ft | 433 kts | 261° |
| 2026-05-06 09:02 | 24.04565 | 51.06904 | 25531 ft | 433 kts | 260° |
| 2026-05-06 09:02 | 24.04070 | 51.03646 | 25917 ft | 435 kts | 260° |
| 2026-05-06 09:03 | 24.03581 | 51.00425 | 26296 ft | 436 kts | 260° |
| 2026-05-06 09:03 | 24.03083 | 50.97144 | 26682 ft | 438 kts | 260° |
| 2026-05-06 09:03 | 24.02583 | 50.93852 | 27075 ft | 440 kts | 260° |
| 2026-05-06 09:03 | 24.02081 | 50.90543 | 27451 ft | 441 kts | 260° |
| 2026-05-06 09:04 | 24.01577 | 50.87224 | 27826 ft | 443 kts | 259° |
| 2026-05-06 09:04 | 24.01071 | 50.83893 | 28146 ft | 446 kts | 259° |
| 2026-05-06 09:04 | 24.00560 | 50.80537 | 28514 ft | 448 kts | 259° |
| 2026-05-06 09:04 | 24.00047 | 50.77171 | 28877 ft | 450 kts | 259° |
| 2026-05-06 09:05 | 23.99531 | 50.73797 | 29220 ft | 451 kts | 259° |
| 2026-05-06 09:05 | 23.99012 | 50.70401 | 29573 ft | 453 kts | 259° |
| 2026-05-06 09:05 | 23.98491 | 50.67001 | 29908 ft | 455 kts | 259° |
| 2026-05-06 09:05 | 23.97966 | 50.63578 | 30175 ft | 457 kts | 259° |
| 2026-05-06 09:06 | 23.97438 | 50.60145 | 30421 ft | 459 kts | 259° |
| 2026-05-06 09:06 | 23.96909 | 50.56701 | 30677 ft | 461 kts | 259° |
| 2026-05-06 09:06 | 23.96374 | 50.53236 | 30940 ft | 462 kts | 259° |
| 2026-05-06 09:06 | 23.95839 | 50.49765 | 31200 ft | 463 kts | 259° |
| 2026-05-06 09:07 | 23.95302 | 50.46294 | 31449 ft | 465 kts | 259° |
| 2026-05-06 09:07 | 23.94760 | 50.42796 | 31702 ft | 466 kts | 259° |
| 2026-05-06 09:07 | 23.94218 | 50.39297 | 31907 ft | 468 kts | 259° |
| 2026-05-06 09:07 | 23.93673 | 50.35790 | 32160 ft | 468 kts | 259° |
| 2026-05-06 09:08 | 23.93130 | 50.32294 | 32506 ft | 466 kts | 259° |
| 2026-05-06 09:08 | 23.92586 | 50.28802 | 32856 ft | 465 kts | 259° |
| 2026-05-06 09:08 | 23.92044 | 50.25328 | 33196 ft | 463 kts | 259° |
| 2026-05-06 09:08 | 23.91502 | 50.21859 | 33519 ft | 462 kts | 259° |
| 2026-05-06 09:09 | 23.90962 | 50.18406 | 33829 ft | 461 kts | 259° |
| 2026-05-06 09:09 | 23.90421 | 50.14960 | 34070 ft | 460 kts | 259° |
| 2026-05-06 09:09 | 23.89880 | 50.11517 | 34294 ft | 460 kts | 259° |
| 2026-05-06 09:09 | 23.89339 | 50.08077 | 34535 ft | 459 kts | 259° |
| 2026-05-06 09:10 | 23.88798 | 50.04642 | 34777 ft | 458 kts | 259° |
| 2026-05-06 09:10 | 23.88258 | 50.01214 | 35007 ft | 457 kts | 259° |
| 2026-05-06 09:10 | 23.87717 | 49.97794 | 35234 ft | 457 kts | 259° |
| 2026-05-06 09:10 | 23.87176 | 49.94373 | 35442 ft | 456 kts | 259° |
| 2026-05-06 09:11 | 23.86637 | 49.90966 | 35640 ft | 456 kts | 258° |
| 2026-05-06 09:11 | 23.86094 | 49.87549 | 35844 ft | 455 kts | 258° |
| 2026-05-06 09:11 | 23.85553 | 49.84142 | 36046 ft | 455 kts | 258° |
| 2026-05-06 09:11 | 23.85012 | 49.80742 | 36247 ft | 454 kts | 258° |
| 2026-05-06 09:12 | 23.84470 | 49.77342 | 36443 ft | 454 kts | 258° |
| 2026-05-06 09:12 | 23.83929 | 49.73947 | 36621 ft | 454 kts | 258° |
| 2026-05-06 09:12 | 23.83386 | 49.70552 | 36777 ft | 454 kts | 258° |
| 2026-05-06 09:12 | 23.82843 | 49.67158 | 36929 ft | 454 kts | 258° |
| 2026-05-06 09:13 | 23.82298 | 49.63762 | 37119 ft | 453 kts | 258° |
| 2026-05-06 09:13 | 23.81756 | 49.60380 | 37280 ft | 453 kts | 258° |
| 2026-05-06 09:13 | 23.81210 | 49.56987 | 37438 ft | 453 kts | 258° |
| 2026-05-06 09:13 | 23.80666 | 49.53605 | 37593 ft | 452 kts | 258° |
| 2026-05-06 09:14 | 23.80120 | 49.50222 | 37756 ft | 452 kts | 258° |
| 2026-05-06 09:14 | 23.79027 | 49.43453 | 37816 ft | 453 kts | 258° |
| 2026-05-06 09:15 | 23.77936 | 49.36721 | 37815 ft | 453 kts | 258° |
| 2026-05-06 09:15 | 23.76836 | 49.29947 | 37816 ft | 453 kts | 258° |
| 2026-05-06 09:16 | 23.75733 | 49.23182 | 37812 ft | 453 kts | 258° |
| 2026-05-06 09:16 | 23.74629 | 49.16422 | 37813 ft | 453 kts | 258° |
| 2026-05-06 09:17 | 23.73520 | 49.09654 | 37812 ft | 453 kts | 258° |
| 2026-05-06 09:17 | 23.72402 | 49.02850 | 37812 ft | 452 kts | 258° |
| 2026-05-06 09:18 | 23.71299 | 48.96157 | 37812 ft | 451 kts | 258° |
| 2026-05-06 09:18 | 23.70185 | 48.89417 | 37814 ft | 451 kts | 258° |
| 2026-05-06 09:19 | 23.69069 | 48.82681 | 37814 ft | 451 kts | 258° |
| 2026-05-06 09:19 | 23.67951 | 48.75954 | 37811 ft | 451 kts | 258° |
| 2026-05-06 09:20 | 23.66828 | 48.69217 | 37819 ft | 451 kts | 258° |
| 2026-05-06 09:20 | 23.65703 | 48.62483 | 37818 ft | 451 kts | 258° |
| 2026-05-06 09:21 | 23.64576 | 48.55756 | 37819 ft | 451 kts | 258° |
| 2026-05-06 09:21 | 23.63446 | 48.49033 | 37818 ft | 451 kts | 258° |
| 2026-05-06 09:22 | 23.62313 | 48.42305 | 37821 ft | 451 kts | 257° |
| 2026-05-06 09:22 | 23.61178 | 48.35583 | 37817 ft | 450 kts | 257° |
| 2026-05-06 09:23 | 23.60042 | 48.28878 | 37819 ft | 450 kts | 257° |
| 2026-05-06 09:23 | 23.58902 | 48.22170 | 37824 ft | 450 kts | 257° |
| 2026-05-06 09:24 | 23.57762 | 48.15474 | 37823 ft | 449 kts | 257° |
| 2026-05-06 09:24 | 23.56622 | 48.08796 | 37826 ft | 448 kts | 257° |
| 2026-05-06 09:25 | 23.55478 | 48.02118 | 37832 ft | 448 kts | 257° |
| 2026-05-06 09:25 | 23.54332 | 47.95440 | 37847 ft | 449 kts | 257° |
| 2026-05-06 09:26 | 23.53186 | 47.88784 | 37833 ft | 446 kts | 257° |
| 2026-05-06 09:26 | 23.52043 | 47.82158 | 37840 ft | 445 kts | 257° |
| 2026-05-06 09:27 | 23.50896 | 47.75535 | 37843 ft | 445 kts | 257° |
| 2026-05-06 09:27 | 23.49746 | 47.68909 | 37848 ft | 446 kts | 257° |
| 2026-05-06 09:28 | 23.48592 | 47.62273 | 37854 ft | 446 kts | 257° |
| 2026-05-06 09:28 | 23.47435 | 47.55638 | 37854 ft | 446 kts | 257° |
| 2026-05-06 09:29 | 23.46276 | 47.49010 | 37852 ft | 445 kts | 257° |
| 2026-05-06 09:29 | 23.45114 | 47.42381 | 37859 ft | 445 kts | 257° |
| 2026-05-06 09:30 | 23.43957 | 47.35800 | 37868 ft | 445 kts | 257° |
| 2026-05-06 09:30 | 23.42785 | 47.29145 | 37867 ft | 444 kts | 257° |
| 2026-05-06 09:31 | 23.41618 | 47.22539 | 37867 ft | 444 kts | 257° |
| 2026-05-06 09:31 | 23.40448 | 47.15935 | 37872 ft | 444 kts | 257° |
| 2026-05-06 09:32 | 23.39277 | 47.09339 | 37875 ft | 444 kts | 257° |
| 2026-05-06 09:32 | 23.38110 | 47.02788 | 37875 ft | 444 kts | 257° |
| 2026-05-06 09:33 | 23.36935 | 46.96200 | 37881 ft | 444 kts | 257° |
| 2026-05-06 09:33 | 23.35757 | 46.89615 | 37879 ft | 442 kts | 257° |
| 2026-05-06 09:34 | 23.34771 | 46.84120 | 37877 ft | 442 kts | 257° |
| 2026-05-06 09:34 | 23.33591 | 46.77554 | 37888 ft | 442 kts | 257° |
| 2026-05-06 09:35 | 23.32416 | 46.71037 | 37894 ft | 442 kts | 257° |
| 2026-05-06 09:35 | 23.31221 | 46.64426 | 37897 ft | 442 kts | 257° |
| 2026-05-06 09:36 | 23.30041 | 46.57909 | 37903 ft | 442 kts | 257° |
| 2026-05-06 09:36 | 23.28850 | 46.51352 | 37902 ft | 442 kts | 257° |
| 2026-05-06 09:37 | 23.27656 | 46.44797 | 37900 ft | 440 kts | 257° |
| 2026-05-06 09:37 | 23.26468 | 46.38271 | 37905 ft | 440 kts | 257° |
| 2026-05-06 09:38 | 23.25275 | 46.31745 | 37909 ft | 441 kts | 257° |
| 2026-05-06 09:38 | 23.24074 | 46.25198 | 37906 ft | 442 kts | 257° |
| 2026-05-06 09:39 | 23.22869 | 46.18638 | 37907 ft | 442 kts | 257° |
| 2026-05-06 09:39 | 23.21661 | 46.12083 | 37907 ft | 444 kts | 256° |
| 2026-05-06 09:40 | 23.20442 | 46.05481 | 37898 ft | 446 kts | 256° |
| 2026-05-06 09:40 | 23.18607 | 45.95575 | 37900 ft | 446 kts | 256° |
| 2026-05-06 09:41 | 23.17380 | 45.88969 | 37901 ft | 447 kts | 256° |
| 2026-05-06 09:41 | 23.16146 | 45.82343 | 37903 ft | 447 kts | 256° |
| 2026-05-06 09:42 | 23.14909 | 45.75719 | 37904 ft | 447 kts | 256° |
| 2026-05-06 09:42 | 23.13670 | 45.69099 | 37908 ft | 447 kts | 256° |
| 2026-05-06 09:43 | 23.12429 | 45.62482 | 37914 ft | 447 kts | 256° |
| 2026-05-06 09:43 | 23.11184 | 45.55864 | 37914 ft | 447 kts | 256° |
| 2026-05-06 09:44 | 23.09938 | 45.49250 | 37914 ft | 446 kts | 256° |
| 2026-05-06 09:44 | 23.08689 | 45.42643 | 37914 ft | 446 kts | 256° |
| 2026-05-06 09:45 | 23.07440 | 45.36046 | 37914 ft | 446 kts | 256° |
| 2026-05-06 09:45 | 23.06186 | 45.29443 | 37915 ft | 446 kts | 256° |
| 2026-05-06 09:46 | 23.04932 | 45.22852 | 37917 ft | 446 kts | 256° |
| 2026-05-06 09:46 | 23.03675 | 45.16263 | 37916 ft | 446 kts | 256° |
| 2026-05-06 09:47 | 23.02413 | 45.09664 | 37920 ft | 446 kts | 256° |
| 2026-05-06 09:47 | 23.01150 | 45.03075 | 37927 ft | 445 kts | 256° |
| 2026-05-06 09:48 | 22.99889 | 44.96509 | 37926 ft | 444 kts | 256° |
| 2026-05-06 09:48 | 22.98625 | 44.89948 | 37927 ft | 445 kts | 256° |
| 2026-05-06 09:49 | 22.97357 | 44.83377 | 37935 ft | 445 kts | 256° |
| 2026-05-06 09:49 | 22.96084 | 44.76798 | 37944 ft | 445 kts | 256° |
| 2026-05-06 09:50 | 22.95032 | 44.70177 | 37941 ft | 447 kts | 263° |
| 2026-05-06 09:50 | 22.95444 | 44.63415 | 37948 ft | 454 kts | 277° |
| 2026-05-06 09:51 | 22.97148 | 44.56825 | 37948 ft | 458 kts | 283° |
| 2026-05-06 09:51 | 22.99262 | 44.50292 | 37947 ft | 459 kts | 284° |
| 2026-05-06 09:52 | 23.01369 | 44.43766 | 37946 ft | 458 kts | 284° |
| 2026-05-06 09:52 | 23.03412 | 44.37223 | 37944 ft | 457 kts | 283° |
| 2026-05-06 09:53 | 23.05422 | 44.30678 | 37946 ft | 457 kts | 283° |
| 2026-05-06 09:53 | 23.07423 | 44.24134 | 37947 ft | 456 kts | 283° |
| 2026-05-06 09:54 | 23.09424 | 44.17592 | 37941 ft | 456 kts | 283° |
| 2026-05-06 09:54 | 23.11422 | 44.11055 | 37937 ft | 456 kts | 283° |
| 2026-05-06 09:55 | 23.13416 | 44.04516 | 37941 ft | 456 kts | 283° |
| 2026-05-06 09:55 | 23.15406 | 43.97981 | 37945 ft | 454 kts | 283° |
| 2026-05-06 09:56 | 23.17388 | 43.91470 | 37941 ft | 453 kts | 283° |
| 2026-05-06 09:56 | 23.19359 | 43.84975 | 37947 ft | 453 kts | 283° |
| 2026-05-06 09:57 | 23.21331 | 43.78469 | 37955 ft | 452 kts | 283° |
| 2026-05-06 09:57 | 23.23294 | 43.71983 | 37961 ft | 452 kts | 283° |
| 2026-05-06 09:58 | 23.25253 | 43.65498 | 37966 ft | 452 kts | 283° |
| 2026-05-06 09:58 | 23.27199 | 43.59046 | 37975 ft | 451 kts | 283° |
| 2026-05-06 09:59 | 23.29150 | 43.52570 | 37976 ft | 450 kts | 283° |
| 2026-05-06 09:59 | 23.31096 | 43.46098 | 37984 ft | 450 kts | 283° |
| 2026-05-06 10:00 | 23.33040 | 43.39620 | 37992 ft | 450 kts | 282° |
| 2026-05-06 10:00 | 23.34975 | 43.33161 | 38002 ft | 449 kts | 282° |